sensor_id;sensor_type;location;lat;lon;timestamp;temperature;humidity
46356;DHT22;32066;49.474;11.106;2023-04-09T00:02:16;11.90;87.10
46356;DHT22;32066;49.474;11.106;2023-04-09T00:04:47;11.90;87.00
46356;DHT22;32066;49.474;11.106;2023-04-09T00:07:16;11.90;87.00
46356;DHT22;32066;49.474;11.106;2023-04-09T00:09:44;11.90;87.00
46356;DHT22;32066;49.474;11.106;2023-04-09T00:12:13;11.90;86.90
46356;DHT22;32066;49.474;11.106;2023-04-09T00:14:41;11.90;87.00
46356;DHT22;32066;49.474;11.106;2023-04-09T00:17:10;11.90;86.90
46356;DHT22;32066;49.474;11.106;2023-04-09T00:19:39;11.90;86.90
46356;DHT22;32066;49.474;11.106;2023-04-09T00:22:10;11.90;86.80
46356;DHT22;32066;49.474;11.106;2023-04-09T00:24:39;11.90;86.70
46356;DHT22;32066;49.474;11.106;2023-04-09T00:27:08;11.90;86.70
46356;DHT22;32066;49.474;11.106;2023-04-09T00:29:36;11.90;86.70
46356;DHT22;32066;49.474;11.106;2023-04-09T00:32:05;11.90;86.80
46356;DHT22;32066;49.474;11.106;2023-04-09T00:34:34;11.90;86.60
46356;DHT22;32066;49.474;11.106;2023-04-09T00:37:03;11.90;86.70
46356;DHT22;32066;49.474;11.106;2023-04-09T00:39:34;11.90;86.60
46356;DHT22;32066;49.474;11.106;2023-04-09T00:42:03;11.90;86.70
46356;DHT22;32066;49.474;11.106;2023-04-09T00:44:32;11.90;86.70
46356;DHT22;32066;49.474;11.106;2023-04-09T00:47:00;12.00;86.70
46356;DHT22;32066;49.474;11.106;2023-04-09T00:49:29;11.90;86.50
46356;DHT22;32066;49.474;11.106;2023-04-09T00:51:58;11.90;86.40
46356;DHT22;32066;49.474;11.106;2023-04-09T00:54:26;11.90;86.50
46356;DHT22;32066;49.474;11.106;2023-04-09T00:56:58;11.90;86.40
46356;DHT22;32066;49.474;11.106;2023-04-09T00:59:27;11.90;86.30
46356;DHT22;32066;49.474;11.106;2023-04-09T01:01:56;12.00;86.30
46356;DHT22;32066;49.474;11.106;2023-04-09T01:04:25;11.90;86.20
46356;DHT22;32066;49.474;11.106;2023-04-09T01:06:58;11.90;86.30
46356;DHT22;32066;49.474;11.106;2023-04-09T01:09:34;11.90;86.20
46356;DHT22;32066;49.474;11.106;2023-04-09T01:12:11;11.90;86.20
46356;DHT22;32066;49.474;11.106;2023-04-09T01:14:47;11.90;86.10
46356;DHT22;32066;49.474;11.106;2023-04-09T01:17:21;11.90;86.10
46356;DHT22;32066;49.474;11.106;2023-04-09T01:19:59;11.90;86.00
46356;DHT22;32066;49.474;11.106;2023-04-09T01:22:39;11.90;86.70
46356;DHT22;32066;49.474;11.106;2023-04-09T01:25:21;11.90;86.10
46356;DHT22;32066;49.474;11.106;2023-04-09T01:30:59;11.90;86.10
46356;DHT22;32066;49.474;11.106;2023-04-09T01:33:30;11.90;86.00
46356;DHT22;32066;49.474;11.106;2023-04-09T01:35:59;11.90;86.00
46356;DHT22;32066;49.474;11.106;2023-04-09T01:38:28;11.90;86.00
46356;DHT22;32066;49.474;11.106;2023-04-09T01:40:59;11.90;86.10
46356;DHT22;32066;49.474;11.106;2023-04-09T01:43:29;11.90;86.10
46356;DHT22;32066;49.474;11.106;2023-04-09T01:46:02;11.90;86.10
46356;DHT22;32066;49.474;11.106;2023-04-09T01:48:32;11.90;86.10
46356;DHT22;32066;49.474;11.106;2023-04-09T01:51:01;11.90;86.00
46356;DHT22;32066;49.474;11.106;2023-04-09T01:53:30;11.90;85.90
46356;DHT22;32066;49.474;11.106;2023-04-09T01:55:59;11.90;86.00
46356;DHT22;32066;49.474;11.106;2023-04-09T01:58:28;11.90;86.00
46356;DHT22;32066;49.474;11.106;2023-04-09T02:01:05;11.90;86.20
46356;DHT22;32066;49.474;11.106;2023-04-09T02:03:40;11.90;86.10
46356;DHT22;32066;49.474;11.106;2023-04-09T02:06:14;11.80;86.10
46356;DHT22;32066;49.474;11.106;2023-04-09T02:08:46;11.80;86.10
46356;DHT22;32066;49.474;11.106;2023-04-09T02:11:15;11.90;86.10
46356;DHT22;32066;49.474;11.106;2023-04-09T02:13:44;11.90;86.10
46356;DHT22;32066;49.474;11.106;2023-04-09T02:16:16;11.80;86.10
46356;DHT22;32066;49.474;11.106;2023-04-09T02:18:45;11.90;86.10
46356;DHT22;32066;49.474;11.106;2023-04-09T02:21:14;11.90;86.10
46356;DHT22;32066;49.474;11.106;2023-04-09T02:23:43;11.80;86.10
46356;DHT22;32066;49.474;11.106;2023-04-09T02:26:11;11.80;86.10
46356;DHT22;32066;49.474;11.106;2023-04-09T02:28:40;11.90;86.20
46356;DHT22;32066;49.474;11.106;2023-04-09T02:31:09;11.80;86.10
46356;DHT22;32066;49.474;11.106;2023-04-09T02:33:40;11.80;86.00
46356;DHT22;32066;49.474;11.106;2023-04-09T02:36:10;11.80;86.10
46356;DHT22;32066;49.474;11.106;2023-04-09T02:38:39;11.80;86.10
46356;DHT22;32066;49.474;11.106;2023-04-09T02:41:09;11.80;86.00
46356;DHT22;32066;49.474;11.106;2023-04-09T02:43:37;11.80;85.90
46356;DHT22;32066;49.474;11.106;2023-04-09T02:46:06;11.80;86.00
46356;DHT22;32066;49.474;11.106;2023-04-09T02:48:35;11.70;85.80
46356;DHT22;32066;49.474;11.106;2023-04-09T02:51:07;11.70;85.80
46356;DHT22;32066;49.474;11.106;2023-04-09T02:53:35;11.70;85.70
46356;DHT22;32066;49.474;11.106;2023-04-09T02:56:05;11.70;85.70
46356;DHT22;32066;49.474;11.106;2023-04-09T02:58:34;11.70;85.50
46356;DHT22;32066;49.474;11.106;2023-04-09T03:01:03;11.70;85.50
46356;DHT22;32066;49.474;11.106;2023-04-09T03:03:32;11.60;85.30
46356;DHT22;32066;49.474;11.106;2023-04-09T03:06:02;11.60;85.60
46356;DHT22;32066;49.474;11.106;2023-04-09T03:08:33;11.60;85.30
46356;DHT22;32066;49.474;11.106;2023-04-09T03:11:02;11.60;85.30
46356;DHT22;32066;49.474;11.106;2023-04-09T03:13:30;11.50;85.10
46356;DHT22;32066;49.474;11.106;2023-04-09T03:15:59;11.50;85.60
46356;DHT22;32066;49.474;11.106;2023-04-09T03:18:28;11.50;84.90
46356;DHT22;32066;49.474;11.106;2023-04-09T03:20:56;11.50;85.20
46356;DHT22;32066;49.474;11.106;2023-04-09T03:23:27;11.50;85.10
46356;DHT22;32066;49.474;11.106;2023-04-09T03:26:04;11.50;85.00
46356;DHT22;32066;49.474;11.106;2023-04-09T03:28:40;11.40;84.90
46356;DHT22;32066;49.474;11.106;2023-04-09T03:31:09;11.40;84.70
46356;DHT22;32066;49.474;11.106;2023-04-09T03:33:39;11.40;84.80
46356;DHT22;32066;49.474;11.106;2023-04-09T03:36:09;11.40;85.30
46356;DHT22;32066;49.474;11.106;2023-04-09T03:39:01;11.30;84.70
46356;DHT22;32066;49.474;11.106;2023-04-09T03:41:45;11.30;84.60
46356;DHT22;32066;49.474;11.106;2023-04-09T03:44:16;11.30;84.60
46356;DHT22;32066;49.474;11.106;2023-04-09T03:46:57;11.30;84.50
46356;DHT22;32066;49.474;11.106;2023-04-09T03:49:27;11.20;84.50
46356;DHT22;32066;49.474;11.106;2023-04-09T03:52:02;11.20;84.50
46356;DHT22;32066;49.474;11.106;2023-04-09T03:54:36;11.30;84.50
46356;DHT22;32066;49.474;11.106;2023-04-09T03:57:14;11.20;84.30
46356;DHT22;32066;49.474;11.106;2023-04-09T03:59:45;11.20;84.30
46356;DHT22;32066;49.474;11.106;2023-04-09T04:02:17;11.20;84.30
46356;DHT22;32066;49.474;11.106;2023-04-09T04:04:54;11.10;84.10
46356;DHT22;32066;49.474;11.106;2023-04-09T04:07:27;11.10;84.10
46356;DHT22;32066;49.474;11.106;2023-04-09T04:10:03;11.10;84.00
46356;DHT22;32066;49.474;11.106;2023-04-09T04:12:35;11.10;84.00
46356;DHT22;32066;49.474;11.106;2023-04-09T04:15:09;11.00;83.80
46356;DHT22;32066;49.474;11.106;2023-04-09T04:17:43;11.00;83.70
46356;DHT22;32066;49.474;11.106;2023-04-09T04:20:24;11.00;83.60
46356;DHT22;32066;49.474;11.106;2023-04-09T04:22:59;11.00;83.40
46356;DHT22;32066;49.474;11.106;2023-04-09T04:25:29;11.00;83.30
46356;DHT22;32066;49.474;11.106;2023-04-09T04:28:01;11.00;83.30
46356;DHT22;32066;49.474;11.106;2023-04-09T04:30:39;11.00;83.20
46356;DHT22;32066;49.474;11.106;2023-04-09T04:33:08;10.90;83.10
46356;DHT22;32066;49.474;11.106;2023-04-09T04:35:43;10.90;83.20
46356;DHT22;32066;49.474;11.106;2023-04-09T04:38:32;10.90;83.70
46356;DHT22;32066;49.474;11.106;2023-04-09T04:41:05;10.90;83.10
46356;DHT22;32066;49.474;11.106;2023-04-09T04:43:40;10.90;83.00
46356;DHT22;32066;49.474;11.106;2023-04-09T04:46:17;10.90;83.10
46356;DHT22;32066;49.474;11.106;2023-04-09T04:48:46;10.90;82.90
46356;DHT22;32066;49.474;11.106;2023-04-09T04:51:15;10.90;82.90
46356;DHT22;32066;49.474;11.106;2023-04-09T04:53:56;10.80;82.90
46356;DHT22;32066;49.474;11.106;2023-04-09T04:56:25;10.80;82.90
46356;DHT22;32066;49.474;11.106;2023-04-09T04:59:03;10.80;82.80
46356;DHT22;32066;49.474;11.106;2023-04-09T05:01:44;10.80;82.70
46356;DHT22;32066;49.474;11.106;2023-04-09T05:04:13;10.80;82.70
46356;DHT22;32066;49.474;11.106;2023-04-09T05:06:42;10.80;82.70
46356;DHT22;32066;49.474;11.106;2023-04-09T05:09:16;10.80;82.60
46356;DHT22;32066;49.474;11.106;2023-04-09T05:11:57;10.80;82.50
46356;DHT22;32066;49.474;11.106;2023-04-09T05:14:28;10.80;82.50
46356;DHT22;32066;49.474;11.106;2023-04-09T05:16:57;10.80;82.50
46356;DHT22;32066;49.474;11.106;2023-04-09T05:19:33;10.80;82.40
46356;DHT22;32066;49.474;11.106;2023-04-09T05:22:02;10.80;82.50
46356;DHT22;32066;49.474;11.106;2023-04-09T05:24:30;10.80;83.10
46356;DHT22;32066;49.474;11.106;2023-04-09T05:26:59;10.90;82.50
46356;DHT22;32066;49.474;11.106;2023-04-09T05:29:31;10.90;82.50
46356;DHT22;32066;49.474;11.106;2023-04-09T05:32:01;10.90;82.50
46356;DHT22;32066;49.474;11.106;2023-04-09T05:34:34;10.90;82.40
46356;DHT22;32066;49.474;11.106;2023-04-09T05:37:04;11.00;82.40
46356;DHT22;32066;49.474;11.106;2023-04-09T05:39:33;10.90;82.40
46356;DHT22;32066;49.474;11.106;2023-04-09T05:42:03;11.00;82.40
46356;DHT22;32066;49.474;11.106;2023-04-09T05:44:39;11.00;82.30
46356;DHT22;32066;49.474;11.106;2023-04-09T05:47:13;11.00;82.40
46356;DHT22;32066;49.474;11.106;2023-04-09T05:49:51;11.10;82.30
46356;DHT22;32066;49.474;11.106;2023-04-09T05:52:19;11.10;82.40
46356;DHT22;32066;49.474;11.106;2023-04-09T05:54:49;11.10;82.40
46356;DHT22;32066;49.474;11.106;2023-04-09T05:57:24;11.20;82.40
46356;DHT22;32066;49.474;11.106;2023-04-09T06:00:00;11.20;82.50
46356;DHT22;32066;49.474;11.106;2023-04-09T06:02:42;11.20;82.70
46356;DHT22;32066;49.474;11.106;2023-04-09T06:05:12;11.30;82.90
46356;DHT22;32066;49.474;11.106;2023-04-09T06:07:41;11.30;82.90
46356;DHT22;32066;49.474;11.106;2023-04-09T06:10:09;11.40;82.60
46356;DHT22;32066;49.474;11.106;2023-04-09T06:12:38;11.50;82.50
46356;DHT22;32066;49.474;11.106;2023-04-09T06:15:10;11.50;82.50
46356;DHT22;32066;49.474;11.106;2023-04-09T06:17:39;11.60;82.60
46356;DHT22;32066;49.474;11.106;2023-04-09T06:20:09;11.70;82.30
46356;DHT22;32066;49.474;11.106;2023-04-09T06:22:37;11.70;82.40
46356;DHT22;32066;49.474;11.106;2023-04-09T06:25:07;11.80;82.50
46356;DHT22;32066;49.474;11.106;2023-04-09T06:27:35;11.90;82.50
46356;DHT22;32066;49.474;11.106;2023-04-09T06:30:05;12.00;82.50
46356;DHT22;32066;49.474;11.106;2023-04-09T06:32:37;12.00;82.50
46356;DHT22;32066;49.474;11.106;2023-04-09T06:35:06;12.10;82.50
46356;DHT22;32066;49.474;11.106;2023-04-09T06:37:35;12.20;82.60
46356;DHT22;32066;49.474;11.106;2023-04-09T06:40:05;12.30;82.70
46356;DHT22;32066;49.474;11.106;2023-04-09T06:42:34;12.30;82.50
46356;DHT22;32066;49.474;11.106;2023-04-09T06:45:16;12.40;82.40
46356;DHT22;32066;49.474;11.106;2023-04-09T06:47:47;12.50;82.20
46356;DHT22;32066;49.474;11.106;2023-04-09T06:50:16;12.60;82.20
46356;DHT22;32066;49.474;11.106;2023-04-09T06:52:44;12.70;82.20
46356;DHT22;32066;49.474;11.106;2023-04-09T06:55:13;12.80;82.30
46356;DHT22;32066;49.474;11.106;2023-04-09T06:57:42;12.90;82.10
46356;DHT22;32066;49.474;11.106;2023-04-09T07:00:11;13.00;81.90
46356;DHT22;32066;49.474;11.106;2023-04-09T07:02:41;13.10;81.80
46356;DHT22;32066;49.474;11.106;2023-04-09T07:05:12;13.20;81.70
46356;DHT22;32066;49.474;11.106;2023-04-09T07:07:40;13.30;81.50
46356;DHT22;32066;49.474;11.106;2023-04-09T07:10:09;13.40;81.30
46356;DHT22;32066;49.474;11.106;2023-04-09T07:12:38;13.50;81.20
46356;DHT22;32066;49.474;11.106;2023-04-09T07:15:07;13.60;81.10
46356;DHT22;32066;49.474;11.106;2023-04-09T07:17:36;13.70;80.80
46356;DHT22;32066;49.474;11.106;2023-04-09T07:20:06;13.80;80.70
46356;DHT22;32066;49.474;11.106;2023-04-09T07:22:38;13.90;80.50
46356;DHT22;32066;49.474;11.106;2023-04-09T07:25:07;14.00;80.50
46356;DHT22;32066;49.474;11.106;2023-04-09T07:27:36;14.10;80.20
46356;DHT22;32066;49.474;11.106;2023-04-09T07:30:06;14.20;80.10
46356;DHT22;32066;49.474;11.106;2023-04-09T07:32:35;14.30;79.70
46356;DHT22;32066;49.474;11.106;2023-04-09T07:35:06;14.40;79.60
46356;DHT22;32066;49.474;11.106;2023-04-09T07:37:38;14.50;79.40
46356;DHT22;32066;49.474;11.106;2023-04-09T07:40:08;14.60;79.00
46356;DHT22;32066;49.474;11.106;2023-04-09T07:45:07;14.80;78.30
46356;DHT22;32066;49.474;11.106;2023-04-09T07:47:37;14.80;78.60
46356;DHT22;32066;49.474;11.106;2023-04-09T07:50:08;14.90;78.40
46356;DHT22;32066;49.474;11.106;2023-04-09T07:52:39;15.00;78.00
46356;DHT22;32066;49.474;11.106;2023-04-09T07:55:08;15.10;77.40
46356;DHT22;32066;49.474;11.106;2023-04-09T07:57:37;15.30;77.40
46356;DHT22;32066;49.474;11.106;2023-04-09T08:00:06;15.40;77.30
46356;DHT22;32066;49.474;11.106;2023-04-09T08:02:44;15.40;76.90
46356;DHT22;32066;49.474;11.106;2023-04-09T08:05:13;15.60;75.80
46356;DHT22;32066;49.474;11.106;2023-04-09T08:07:44;15.70;75.30
46356;DHT22;32066;49.474;11.106;2023-04-09T08:10:13;15.70;75.10
46356;DHT22;32066;49.474;11.106;2023-04-09T08:12:41;15.80;75.40
46356;DHT22;32066;49.474;11.106;2023-04-09T08:15:10;15.90;74.90
46356;DHT22;32066;49.474;11.106;2023-04-09T08:17:39;16.00;74.90
46356;DHT22;32066;49.474;11.106;2023-04-09T08:20:09;16.10;74.50
46356;DHT22;32066;49.474;11.106;2023-04-09T08:22:38;16.20;74.10
46356;DHT22;32066;49.474;11.106;2023-04-09T08:25:10;16.30;73.80
46356;DHT22;32066;49.474;11.106;2023-04-09T08:27:38;16.50;73.20
46356;DHT22;32066;49.474;11.106;2023-04-09T08:30:08;16.60;72.70
46356;DHT22;32066;49.474;11.106;2023-04-09T08:32:37;16.70;72.20
46356;DHT22;32066;49.474;11.106;2023-04-09T08:35:07;16.80;71.80
46356;DHT22;32066;49.474;11.106;2023-04-09T08:37:35;16.80;71.40
46356;DHT22;32066;49.474;11.106;2023-04-09T08:40:05;16.80;71.70
46356;DHT22;32066;49.474;11.106;2023-04-09T08:42:38;16.90;71.90
46356;DHT22;32066;49.474;11.106;2023-04-09T08:45:11;17.10;70.30
46356;DHT22;32066;49.474;11.106;2023-04-09T08:47:41;17.20;69.80
46356;DHT22;32066;49.474;11.106;2023-04-09T08:50:11;17.30;69.90
46356;DHT22;32066;49.474;11.106;2023-04-09T08:52:40;17.40;69.20
46356;DHT22;32066;49.474;11.106;2023-04-09T08:55:11;17.50;69.80
46356;DHT22;32066;49.474;11.106;2023-04-09T08:57:42;17.60;69.60
46356;DHT22;32066;49.474;11.106;2023-04-09T09:00:12;17.70;68.90
46356;DHT22;32066;49.474;11.106;2023-04-09T09:03:02;17.80;67.20
46356;DHT22;32066;49.474;11.106;2023-04-09T09:05:35;17.80;67.40
46356;DHT22;32066;49.474;11.106;2023-04-09T09:08:05;18.00;66.60
46356;DHT22;32066;49.474;11.106;2023-04-09T09:10:38;18.10;64.80
46356;DHT22;32066;49.474;11.106;2023-04-09T09:13:21;18.20;64.50
46356;DHT22;32066;49.474;11.106;2023-04-09T09:15:52;18.40;64.10
46356;DHT22;32066;49.474;11.106;2023-04-09T09:18:37;18.50;64.50
46356;DHT22;32066;49.474;11.106;2023-04-09T09:21:10;18.60;64.70
46356;DHT22;32066;49.474;11.106;2023-04-09T09:23:39;18.70;64.40
46356;DHT22;32066;49.474;11.106;2023-04-09T09:26:11;18.70;64.70
46356;DHT22;32066;49.474;11.106;2023-04-09T09:28:43;18.70;64.50
46356;DHT22;32066;49.474;11.106;2023-04-09T09:31:13;18.70;63.70
46356;DHT22;32066;49.474;11.106;2023-04-09T09:33:42;18.60;63.00
46356;DHT22;32066;49.474;11.106;2023-04-09T09:36:12;18.60;63.20
46356;DHT22;32066;49.474;11.106;2023-04-09T09:38:51;18.60;63.10
46356;DHT22;32066;49.474;11.106;2023-04-09T09:41:21;18.70;63.20
46356;DHT22;32066;49.474;11.106;2023-04-09T09:43:53;18.90;63.10
46356;DHT22;32066;49.474;11.106;2023-04-09T09:46:24;19.00;63.40
46356;DHT22;32066;49.474;11.106;2023-04-09T09:48:53;19.20;63.00
46356;DHT22;32066;49.474;11.106;2023-04-09T09:51:25;19.40;62.80
46356;DHT22;32066;49.474;11.106;2023-04-09T09:53:56;19.50;62.10
46356;DHT22;32066;49.474;11.106;2023-04-09T09:56:29;19.70;62.00
46356;DHT22;32066;49.474;11.106;2023-04-09T09:59:06;19.70;61.50
46356;DHT22;32066;49.474;11.106;2023-04-09T10:01:39;19.80;61.80
46356;DHT22;32066;49.474;11.106;2023-04-09T10:04:08;19.90;60.50
46356;DHT22;32066;49.474;11.106;2023-04-09T10:06:42;20.00;60.30
46356;DHT22;32066;49.474;11.106;2023-04-09T10:09:11;20.00;59.30
46356;DHT22;32066;49.474;11.106;2023-04-09T10:11:40;20.00;58.30
46356;DHT22;32066;49.474;11.106;2023-04-09T10:14:15;19.90;58.70
46356;DHT22;32066;49.474;11.106;2023-04-09T10:16:45;20.00;58.50
46356;DHT22;32066;49.474;11.106;2023-04-09T10:19:14;20.10;58.70
46356;DHT22;32066;49.474;11.106;2023-04-09T10:21:49;20.30;59.10
46356;DHT22;32066;49.474;11.106;2023-04-09T10:24:20;20.50;58.50
46356;DHT22;32066;49.474;11.106;2023-04-09T10:26:53;20.70;57.70
46356;DHT22;32066;49.474;11.106;2023-04-09T10:29:28;20.80;56.70
46356;DHT22;32066;49.474;11.106;2023-04-09T10:32:03;20.90;56.40
46356;DHT22;32066;49.474;11.106;2023-04-09T10:34:35;21.10;55.50
46356;DHT22;32066;49.474;11.106;2023-04-09T10:37:07;21.20;55.60
46356;DHT22;32066;49.474;11.106;2023-04-09T10:39:39;21.40;55.60
46356;DHT22;32066;49.474;11.106;2023-04-09T10:42:13;21.60;55.00
46356;DHT22;32066;49.474;11.106;2023-04-09T10:44:44;21.70;54.40
46356;DHT22;32066;49.474;11.106;2023-04-09T10:47:30;21.90;54.30
46356;DHT22;32066;49.474;11.106;2023-04-09T10:50:14;21.80;52.30
46356;DHT22;32066;49.474;11.106;2023-04-09T10:52:43;21.70;51.30
46356;DHT22;32066;49.474;11.106;2023-04-09T10:55:32;21.70;51.40
46356;DHT22;32066;49.474;11.106;2023-04-09T10:58:02;21.60;49.90
46356;DHT22;32066;49.474;11.106;2023-04-09T11:00:37;21.50;49.40
46356;DHT22;32066;49.474;11.106;2023-04-09T11:03:24;21.60;49.70
46356;DHT22;32066;49.474;11.106;2023-04-09T11:05:58;21.80;50.10
46356;DHT22;32066;49.474;11.106;2023-04-09T11:08:28;21.90;50.50
46356;DHT22;32066;49.474;11.106;2023-04-09T11:10:58;22.10;50.50
46356;DHT22;32066;49.474;11.106;2023-04-09T11:13:29;22.10;49.60
46356;DHT22;32066;49.474;11.106;2023-04-09T11:16:01;22.30;49.50
46356;DHT22;32066;49.474;11.106;2023-04-09T11:18:31;22.40;49.30
46356;DHT22;32066;49.474;11.106;2023-04-09T11:21:02;22.50;49.10
46356;DHT22;32066;49.474;11.106;2023-04-09T11:23:31;22.60;48.20
46356;DHT22;32066;49.474;11.106;2023-04-09T11:26:00;22.70;47.20
46356;DHT22;32066;49.474;11.106;2023-04-09T11:28:29;22.80;47.40
46356;DHT22;32066;49.474;11.106;2023-04-09T11:31:03;22.80;46.40
46356;DHT22;32066;49.474;11.106;2023-04-09T11:33:32;22.90;46.40
46356;DHT22;32066;49.474;11.106;2023-04-09T11:36:03;22.90;46.40
46356;DHT22;32066;49.474;11.106;2023-04-09T11:38:32;22.80;47.00
46356;DHT22;32066;49.474;11.106;2023-04-09T11:41:01;22.70;46.60
46356;DHT22;32066;49.474;11.106;2023-04-09T11:43:30;22.60;46.80
46356;DHT22;32066;49.474;11.106;2023-04-09T11:46:01;22.50;46.10
46356;DHT22;32066;49.474;11.106;2023-04-09T11:48:31;22.40;45.50
46356;DHT22;32066;49.474;11.106;2023-04-09T11:51:01;22.20;46.10
46356;DHT22;32066;49.474;11.106;2023-04-09T11:53:30;22.20;46.70
46356;DHT22;32066;49.474;11.106;2023-04-09T11:55:58;22.20;47.10
46356;DHT22;32066;49.474;11.106;2023-04-09T11:58:27;22.30;47.40
46356;DHT22;32066;49.474;11.106;2023-04-09T12:00:58;22.50;47.50
46356;DHT22;32066;49.474;11.106;2023-04-09T12:03:30;22.70;47.50
46356;DHT22;32066;49.474;11.106;2023-04-09T12:06:02;22.90;46.90
46356;DHT22;32066;49.474;11.106;2023-04-09T12:08:33;23.10;46.60
46356;DHT22;32066;49.474;11.106;2023-04-09T12:11:09;23.30;46.90
46356;DHT22;32066;49.474;11.106;2023-04-09T12:13:38;23.50;46.20
46356;DHT22;32066;49.474;11.106;2023-04-09T12:16:09;23.60;45.70
46356;DHT22;32066;49.474;11.106;2023-04-09T12:18:40;23.80;45.70
46356;DHT22;32066;49.474;11.106;2023-04-09T12:21:09;24.00;45.60
46356;DHT22;32066;49.474;11.106;2023-04-09T12:23:38;24.10;45.70
46356;DHT22;32066;49.474;11.106;2023-04-09T12:26:06;24.20;45.30
46356;DHT22;32066;49.474;11.106;2023-04-09T12:28:35;24.10;45.40
46356;DHT22;32066;49.474;11.106;2023-04-09T12:31:04;24.00;44.90
46356;DHT22;32066;49.474;11.106;2023-04-09T12:33:36;23.80;45.20
46356;DHT22;32066;49.474;11.106;2023-04-09T12:36:08;23.60;45.10
46356;DHT22;32066;49.474;11.106;2023-04-09T12:38:37;23.40;45.50
46356;DHT22;32066;49.474;11.106;2023-04-09T12:41:05;23.20;45.80
46356;DHT22;32066;49.474;11.106;2023-04-09T12:43:34;23.00;46.10
46356;DHT22;32066;49.474;11.106;2023-04-09T12:46:03;22.80;46.30
46356;DHT22;32066;49.474;11.106;2023-04-09T12:48:32;22.70;46.60
46356;DHT22;32066;49.474;11.106;2023-04-09T12:51:00;22.50;46.70
46356;DHT22;32066;49.474;11.106;2023-04-09T12:53:33;22.40;46.80
46356;DHT22;32066;49.474;11.106;2023-04-09T12:56:02;22.30;46.70
46356;DHT22;32066;49.474;11.106;2023-04-09T12:58:31;22.20;47.10
46356;DHT22;32066;49.474;11.106;2023-04-09T13:00:59;22.10;46.70
46356;DHT22;32066;49.474;11.106;2023-04-09T13:03:29;21.90;46.60
46356;DHT22;32066;49.474;11.106;2023-04-09T13:05:57;21.90;46.60
46356;DHT22;32066;49.474;11.106;2023-04-09T13:08:26;21.70;46.40
46356;DHT22;32066;49.474;11.106;2023-04-09T13:10:58;21.60;46.70
46356;DHT22;32066;49.474;11.106;2023-04-09T13:13:27;21.50;46.70
46356;DHT22;32066;49.474;11.106;2023-04-09T13:15:56;21.50;47.50
46356;DHT22;32066;49.474;11.106;2023-04-09T13:18:24;21.60;48.10
46356;DHT22;32066;49.474;11.106;2023-04-09T13:20:54;21.80;48.30
46356;DHT22;32066;49.474;11.106;2023-04-09T13:23:22;22.00;48.60
46356;DHT22;32066;49.474;11.106;2023-04-09T13:25:51;22.20;49.00
46356;DHT22;32066;49.474;11.106;2023-04-09T13:28:22;22.40;49.10
46356;DHT22;32066;49.474;11.106;2023-04-09T13:30:51;22.70;49.20
46356;DHT22;32066;49.474;11.106;2023-04-09T13:33:20;23.00;50.00
46356;DHT22;32066;49.474;11.106;2023-04-09T13:35:49;23.20;50.00
46356;DHT22;32066;49.474;11.106;2023-04-09T13:38:18;23.40;49.70
46356;DHT22;32066;49.474;11.106;2023-04-09T13:40:46;23.50;48.30
46356;DHT22;32066;49.474;11.106;2023-04-09T13:43:15;23.50;48.10
46356;DHT22;32066;49.474;11.106;2023-04-09T13:45:46;23.60;47.90
46356;DHT22;32066;49.474;11.106;2023-04-09T13:48:15;23.50;47.50
46356;DHT22;32066;49.474;11.106;2023-04-09T13:50:43;23.30;47.30
46356;DHT22;32066;49.474;11.106;2023-04-09T13:53:12;23.20;47.50
46356;DHT22;32066;49.474;11.106;2023-04-09T13:55:41;23.00;47.70
46356;DHT22;32066;49.474;11.106;2023-04-09T13:58:10;22.80;48.40
46356;DHT22;32066;49.474;11.106;2023-04-09T14:00:38;22.60;48.00
46356;DHT22;32066;49.474;11.106;2023-04-09T14:03:10;22.50;47.80
46356;DHT22;32066;49.474;11.106;2023-04-09T14:05:39;22.30;47.60
46356;DHT22;32066;49.474;11.106;2023-04-09T14:08:07;22.20;47.40
46356;DHT22;32066;49.474;11.106;2023-04-09T14:10:36;22.00;47.40
46356;DHT22;32066;49.474;11.106;2023-04-09T14:13:05;21.90;47.20
46356;DHT22;32066;49.474;11.106;2023-04-09T14:15:36;21.80;46.80
46356;DHT22;32066;49.474;11.106;2023-04-09T14:18:06;21.80;47.70
46356;DHT22;32066;49.474;11.106;2023-04-09T14:20:37;22.00;48.40
46356;DHT22;32066;49.474;11.106;2023-04-09T14:23:06;22.10;48.60
46356;DHT22;32066;49.474;11.106;2023-04-09T14:25:35;22.30;48.80
46356;DHT22;32066;49.474;11.106;2023-04-09T14:28:03;22.50;48.70
46356;DHT22;32066;49.474;11.106;2023-04-09T14:30:32;22.80;48.80
46356;DHT22;32066;49.474;11.106;2023-04-09T14:33:01;23.00;48.80
46356;DHT22;32066;49.474;11.106;2023-04-09T14:35:29;23.20;48.90
46356;DHT22;32066;49.474;11.106;2023-04-09T14:38:00;23.40;48.90
46356;DHT22;32066;49.474;11.106;2023-04-09T14:40:30;23.60;49.00
46356;DHT22;32066;49.474;11.106;2023-04-09T14:42:58;23.80;48.80
46356;DHT22;32066;49.474;11.106;2023-04-09T14:45:27;23.90;48.90
46356;DHT22;32066;49.474;11.106;2023-04-09T14:47:56;24.20;48.60
46356;DHT22;32066;49.474;11.106;2023-04-09T14:50:24;24.20;48.20
46356;DHT22;32066;49.474;11.106;2023-04-09T14:52:53;24.30;47.50
46356;DHT22;32066;49.474;11.106;2023-04-09T14:55:24;24.20;47.80
46356;DHT22;32066;49.474;11.106;2023-04-09T14:57:53;24.10;46.80
46356;DHT22;32066;49.474;11.106;2023-04-09T15:00:22;23.90;46.60
46356;DHT22;32066;49.474;11.106;2023-04-09T15:02:51;23.80;46.60
46356;DHT22;32066;49.474;11.106;2023-04-09T15:05:20;23.60;45.90
46356;DHT22;32066;49.474;11.106;2023-04-09T15:07:48;23.40;45.50
46356;DHT22;32066;49.474;11.106;2023-04-09T15:10:18;23.30;45.50
46356;DHT22;32066;49.474;11.106;2023-04-09T15:12:49;23.20;45.70
46356;DHT22;32066;49.474;11.106;2023-04-09T15:15:18;23.10;45.40
46356;DHT22;32066;49.474;11.106;2023-04-09T15:17:46;23.00;44.60
46356;DHT22;32066;49.474;11.106;2023-04-09T15:20:15;22.80;44.70
46356;DHT22;32066;49.474;11.106;2023-04-09T15:22:43;22.80;44.80
46356;DHT22;32066;49.474;11.106;2023-04-09T15:25:12;22.70;44.80
46356;DHT22;32066;49.474;11.106;2023-04-09T15:27:41;22.60;45.10
46356;DHT22;32066;49.474;11.106;2023-04-09T15:30:14;22.50;44.80
46356;DHT22;32066;49.474;11.106;2023-04-09T15:32:42;22.50;44.90
46356;DHT22;32066;49.474;11.106;2023-04-09T15:35:11;22.50;45.70
46356;DHT22;32066;49.474;11.106;2023-04-09T15:37:43;22.50;45.70
46356;DHT22;32066;49.474;11.106;2023-04-09T15:40:12;22.60;45.30
46356;DHT22;32066;49.474;11.106;2023-04-09T15:42:41;22.70;45.50
46356;DHT22;32066;49.474;11.106;2023-04-09T15:45:10;22.80;45.60